createdAt,value
2019-02-06T00:01:15.521Z,3.40
2019-02-06T00:03:41.755Z,3.47
2019-02-06T00:06:07.989Z,3.50
2019-02-06T00:08:34.075Z,3.56
2019-02-06T00:11:00.204Z,3.53
2019-02-06T00:13:26.729Z,3.53
2019-02-06T00:15:52.896Z,3.58
2019-02-06T00:18:19.014Z,3.58
2019-02-06T00:20:45.137Z,3.56
2019-02-06T00:23:11.260Z,3.55
2019-02-06T00:25:37.375Z,3.54
2019-02-06T00:28:04.079Z,3.52
2019-02-06T00:30:30.254Z,3.55
2019-02-06T00:32:56.345Z,3.54
2019-02-06T00:35:25.736Z,3.56
2019-02-06T00:37:50.782Z,3.54
2019-02-06T00:40:16.910Z,3.57
2019-02-06T00:42:43.035Z,3.58
2019-02-06T00:45:10.501Z,3.60
2019-02-06T00:47:36.596Z,3.59
2019-02-06T00:50:06.399Z,3.56
2019-02-06T00:52:32.936Z,3.57
2019-02-06T00:54:59.053Z,3.56
2019-02-06T00:57:25.245Z,3.55
2019-02-06T00:59:51.382Z,3.58
2019-02-06T01:02:17.825Z,3.56
2019-02-06T01:04:44.067Z,3.56
2019-02-06T01:07:10.163Z,3.59
2019-02-06T01:09:36.317Z,3.54
2019-02-06T01:12:02.402Z,3.52
2019-02-06T01:14:28.920Z,3.55
2019-02-06T01:16:55.046Z,3.56
2019-02-06T01:19:21.270Z,3.54
2019-02-06T01:21:47.356Z,3.54
2019-02-06T01:24:13.484Z,3.55
2019-02-06T01:26:39.567Z,3.54
2019-02-06T01:29:05.708Z,3.62
2019-02-06T01:31:32.697Z,3.58
2019-02-06T01:33:58.817Z,3.54
2019-02-06T01:36:25.242Z,3.56
2019-02-06T01:38:51.340Z,3.56
2019-02-06T01:41:17.594Z,3.60
2019-02-06T01:43:43.676Z,3.59
2019-02-06T01:46:09.919Z,3.62
2019-02-06T01:48:36.036Z,3.65
2019-02-06T01:51:02.134Z,3.65
2019-02-06T01:53:30.273Z,3.69
2019-02-06T01:55:56.810Z,3.65
2019-02-06T01:58:22.820Z,3.65
2019-02-06T02:00:48.924Z,3.68
2019-02-06T02:03:15.049Z,3.67
2019-02-06T02:05:41.254Z,3.68
2019-02-06T02:08:07.541Z,3.65
2019-02-06T02:10:33.657Z,3.67
2019-02-06T02:12:59.771Z,3.69
2019-02-06T02:15:25.906Z,3.70
2019-02-06T02:17:52.513Z,3.75
2019-02-06T02:20:23.136Z,3.74
2019-02-06T02:22:49.855Z,3.76
2019-02-06T02:25:16.144Z,3.78
2019-02-06T02:27:42.500Z,3.73
2019-02-06T02:30:12.231Z,3.77
2019-02-06T02:32:39.794Z,3.80
2019-02-06T02:35:06.784Z,3.80
2019-02-06T02:37:32.925Z,3.84
2019-02-06T02:39:58.906Z,3.86
2019-02-06T02:42:25.005Z,3.85
2019-02-06T02:44:51.037Z,3.87
2019-02-06T02:47:17.231Z,3.87
2019-02-06T02:49:43.417Z,3.87
2019-02-06T02:52:09.551Z,3.85
2019-02-06T02:54:35.978Z,3.87
2019-02-06T02:57:02.106Z,3.89
2019-02-06T02:59:28.232Z,3.92
2019-02-06T03:02:05.150Z,3.87
2019-02-06T03:04:31.633Z,3.92
2019-02-06T03:06:57.860Z,3.86
2019-02-06T03:09:23.950Z,3.84
2019-02-06T03:11:50.675Z,3.87
2019-02-06T03:14:16.771Z,3.91
2019-02-06T03:16:42.947Z,3.89
2019-02-06T03:19:09.096Z,3.90
2019-02-06T03:21:35.172Z,3.91
2019-02-06T03:24:01.297Z,3.91
2019-02-06T03:26:27.402Z,3.90
2019-02-06T03:28:53.583Z,3.95
2019-02-06T03:31:19.705Z,3.94
2019-02-06T03:33:46.219Z,3.93
2019-02-06T03:36:12.394Z,3.98
2019-02-06T03:38:38.479Z,3.97
2019-02-06T03:41:04.702Z,3.97
2019-02-06T03:43:30.784Z,4.02
2019-02-06T03:45:56.920Z,4.00
2019-02-06T03:48:23.048Z,3.98
2019-02-06T03:50:49.200Z,3.99
2019-02-06T03:53:15.379Z,3.97
2019-02-06T03:55:41.307Z,4.00
2019-02-06T03:58:07.433Z,4.00
2019-02-06T04:00:33.519Z,3.94
2019-02-06T04:02:59.639Z,3.97
2019-02-06T04:05:25.772Z,4.00
2019-02-06T04:07:51.878Z,4.00
2019-02-06T04:10:18.794Z,4.02
2019-02-06T04:12:44.926Z,4.04
2019-02-06T04:15:11.949Z,4.05
2019-02-06T04:17:38.348Z,4.05
2019-02-06T04:20:08.076Z,4.08
2019-02-06T04:22:34.170Z,4.08
2019-02-06T04:25:00.101Z,4.08
2019-02-06T04:27:26.275Z,4.06
2019-02-06T04:29:52.412Z,4.04
2019-02-06T04:32:18.541Z,4.08
2019-02-06T04:34:44.990Z,4.12
2019-02-06T04:37:11.099Z,4.12
2019-02-06T04:39:37.297Z,4.12
2019-02-06T04:42:03.428Z,4.10
2019-02-06T04:44:29.416Z,4.11
2019-02-06T04:46:55.549Z,4.14
2019-02-06T04:49:21.641Z,4.17
2019-02-06T04:51:47.657Z,4.13
2019-02-06T04:54:13.744Z,4.16
2019-02-06T04:56:39.771Z,4.18
2019-02-06T04:59:05.855Z,4.19
2019-02-06T05:01:32.071Z,4.20
2019-02-06T05:03:58.162Z,4.23
2019-02-06T05:06:24.304Z,4.21
2019-02-06T05:08:50.389Z,4.26
2019-02-06T05:11:16.513Z,4.26
2019-02-06T05:13:42.610Z,4.27
2019-02-06T05:16:09.138Z,4.32
2019-02-06T05:18:35.272Z,4.30
2019-02-06T05:21:01.492Z,4.34
2019-02-06T05:23:27.658Z,4.32
2019-02-06T05:25:53.741Z,4.38
2019-02-06T05:28:19.892Z,4.36
2019-02-06T05:30:46.025Z,4.36
2019-02-06T05:33:12.159Z,4.39
2019-02-06T05:35:38.254Z,4.39
2019-02-06T05:38:04.676Z,4.41
2019-02-06T05:40:30.766Z,4.48
2019-02-06T05:42:57.167Z,4.52
2019-02-06T05:45:23.303Z,4.52
2019-02-06T05:47:49.398Z,4.50
2019-02-06T05:50:17.024Z,4.51
2019-02-06T05:52:43.555Z,4.53
2019-02-06T05:55:10.468Z,4.57
2019-02-06T05:57:36.559Z,4.52
2019-02-06T06:00:06.781Z,4.54
2019-02-06T06:02:32.902Z,4.59
2019-02-06T06:04:59.031Z,4.63
2019-02-06T06:07:25.126Z,4.67
2019-02-06T06:09:51.283Z,4.66
2019-02-06T06:12:17.296Z,4.70
2019-02-06T06:14:43.390Z,4.73
2019-02-06T06:17:09.508Z,4.76
2019-02-06T06:19:35.997Z,4.78
2019-02-06T06:22:02.279Z,4.78
2019-02-06T06:24:28.430Z,4.81
2019-02-06T06:26:54.559Z,4.81
2019-02-06T06:29:20.570Z,4.84
2019-02-06T06:31:46.719Z,4.90
2019-02-06T06:34:12.811Z,4.85
2019-02-06T06:36:38.981Z,4.86
2019-02-06T06:39:05.890Z,4.88
2019-02-06T06:41:32.279Z,4.89
2019-02-06T06:43:58.398Z,4.87
2019-02-06T06:46:24.490Z,4.96
2019-02-06T06:48:50.624Z,4.95
2019-02-06T06:51:17.040Z,4.97
2019-02-06T06:53:43.143Z,4.98
2019-02-06T06:56:09.285Z,4.97
2019-02-06T06:58:35.424Z,4.98
2019-02-06T07:01:01.448Z,5.01
2019-02-06T07:03:27.838Z,5.01
2019-02-06T07:05:53.949Z,5.00
2019-02-06T07:08:20.071Z,5.01
2019-02-06T07:10:46.267Z,4.99
2019-02-06T07:13:12.371Z,5.02
2019-02-06T07:15:38.518Z,5.01
2019-02-06T07:18:04.719Z,5.02
2019-02-06T07:20:30.884Z,5.04
2019-02-06T07:22:57.328Z,5.04
2019-02-06T07:25:23.441Z,5.04
2019-02-06T07:27:49.532Z,5.07
2019-02-06T07:30:27.489Z,5.08
2019-02-06T07:32:53.592Z,5.11
2019-02-06T07:35:19.747Z,5.12
2019-02-06T07:37:45.863Z,5.11
2019-02-06T07:40:13.835Z,5.15
2019-02-06T07:42:39.953Z,5.19
2019-02-06T07:45:09.278Z,5.13
2019-02-06T07:47:35.419Z,5.15
2019-02-06T07:50:01.719Z,5.21
2019-02-06T07:52:27.980Z,5.17
2019-02-06T07:54:54.072Z,5.17
2019-02-06T07:57:20.177Z,5.18
2019-02-06T07:59:46.694Z,5.19
2019-02-06T08:02:12.819Z,5.13
2019-02-06T08:04:41.446Z,5.18
2019-02-06T08:07:06.916Z,5.21
2019-02-06T08:09:33.059Z,5.19
2019-02-06T08:11:59.151Z,5.20
2019-02-06T08:14:25.387Z,5.21
2019-02-06T08:16:51.472Z,5.22
2019-02-06T08:19:17.600Z,5.23
2019-02-06T08:21:44.113Z,5.22
2019-02-06T08:24:10.155Z,5.25
2019-02-06T08:26:36.306Z,5.27
2019-02-06T08:29:02.838Z,5.33
2019-02-06T08:31:28.980Z,5.32
2019-02-06T08:33:55.528Z,5.31
2019-02-06T08:36:21.676Z,5.31
2019-02-06T08:38:50.262Z,5.31
2019-02-06T08:41:16.057Z,5.35
2019-02-06T08:43:42.056Z,5.32
2019-02-06T08:46:08.179Z,5.33
2019-02-06T08:48:34.394Z,5.35
2019-02-06T08:51:01.221Z,5.36
2019-02-06T08:53:27.376Z,5.41
2019-02-06T08:55:53.513Z,5.38
2019-02-06T08:58:19.607Z,5.40
2019-02-06T09:00:45.767Z,5.46
2019-02-06T09:03:11.903Z,5.44
2019-02-06T09:05:38.168Z,5.52
2019-02-06T09:08:04.496Z,5.48
2019-02-06T09:10:30.818Z,5.53
2019-02-06T09:12:57.476Z,5.51
2019-02-06T09:15:23.572Z,5.53
2019-02-06T09:17:49.786Z,5.55
2019-02-06T09:20:18.612Z,5.58
2019-02-06T09:22:45.055Z,5.57
2019-02-06T09:25:16.566Z,5.59
2019-02-06T09:27:42.689Z,5.61
2019-02-06T09:30:12.417Z,5.65
2019-02-06T09:32:38.681Z,5.64
2019-02-06T09:35:05.692Z,5.67
2019-02-06T09:37:31.957Z,5.70
2019-02-06T09:39:58.492Z,5.70
2019-02-06T09:42:24.622Z,5.75
2019-02-06T09:44:50.735Z,5.71
2019-02-06T09:47:16.888Z,5.73
2019-02-06T09:49:43.039Z,5.76
2019-02-06T09:52:09.140Z,5.78
2019-02-06T09:54:35.299Z,5.82
2019-02-06T09:57:01.430Z,5.83
2019-02-06T09:59:27.527Z,5.82
2019-02-06T10:01:54.083Z,5.82
2019-02-06T10:04:20.199Z,5.89
2019-02-06T10:06:46.296Z,5.91
2019-02-06T10:09:22.517Z,5.98
2019-02-06T10:11:40.433Z,6.01
2019-02-06T10:14:06.554Z,6.00
2019-02-06T10:16:32.678Z,6.06
2019-02-06T10:18:58.936Z,6.07
2019-02-06T10:21:25.796Z,6.11
2019-02-06T10:23:52.050Z,6.09
2019-02-06T10:26:18.163Z,6.11
2019-02-06T10:28:44.299Z,6.10
2019-02-06T10:31:10.448Z,6.17
2019-02-06T10:33:36.547Z,6.20
2019-02-06T10:36:03.013Z,6.20
2019-02-06T10:38:29.197Z,6.23
2019-02-06T10:40:55.327Z,6.18
2019-02-06T10:43:31.632Z,6.22
2019-02-06T10:45:49.518Z,6.23
2019-02-06T10:48:15.755Z,6.25
2019-02-06T10:50:44.599Z,6.26
2019-02-06T10:53:10.877Z,6.29
2019-02-06T10:55:36.989Z,6.27
2019-02-06T10:58:03.198Z,6.28
2019-02-06T11:00:32.630Z,6.34
2019-02-06T11:02:58.760Z,6.33
2019-02-06T11:05:25.084Z,6.42
2019-02-06T11:07:51.836Z,6.44
2019-02-06T11:10:20.954Z,6.48
2019-02-06T11:12:47.285Z,6.57
2019-02-06T11:15:13.837Z,6.56
2019-02-06T11:17:39.940Z,6.58
2019-02-06T11:20:12.767Z,6.59
2019-02-06T11:22:38.979Z,6.61
2019-02-06T11:25:08.486Z,6.69
2019-02-06T11:27:34.703Z,6.74
2019-02-06T11:30:00.815Z,6.71
2019-02-06T11:32:26.944Z,6.72
2019-02-06T11:34:53.072Z,6.74
2019-02-06T11:37:19.186Z,6.76
2019-02-06T11:39:45.322Z,6.75
2019-02-06T11:42:11.587Z,6.75
2019-02-06T11:44:37.750Z,6.77
2019-02-06T11:47:04.084Z,6.77
2019-02-06T11:49:32.150Z,6.77
2019-02-06T11:51:58.710Z,6.79
2019-02-06T11:54:24.851Z,6.76
2019-02-06T11:56:50.968Z,6.82
2019-02-06T11:59:17.198Z,6.76
2019-02-06T12:01:43.523Z,6.77
2019-02-06T12:04:09.671Z,6.79
2019-02-06T12:06:35.806Z,6.81
2019-02-06T12:09:04.841Z,6.87
2019-02-06T12:11:30.972Z,6.90
2019-02-06T12:13:57.093Z,6.95
2019-02-06T12:16:23.540Z,6.96
2019-02-06T12:18:50.004Z,7.01
2019-02-06T12:21:18.059Z,7.01
2019-02-06T12:23:44.145Z,7.03
2019-02-06T12:26:10.298Z,7.01
2019-02-06T12:28:36.413Z,7.03
2019-02-06T12:31:03.052Z,7.07
2019-02-06T12:33:29.183Z,7.05
2019-02-06T12:35:55.305Z,7.11
2019-02-06T12:38:21.480Z,7.07
2019-02-06T12:40:48.273Z,7.11
2019-02-06T12:43:14.428Z,7.08
2019-02-06T12:45:40.638Z,7.11
2019-02-06T12:48:07.060Z,7.12
2019-02-06T12:50:33.200Z,7.16
2019-02-06T12:52:59.359Z,7.13
2019-02-06T12:55:28.452Z,7.16
2019-02-06T12:57:54.649Z,7.20
2019-02-06T13:00:29.208Z,7.19
2019-02-06T13:02:59.457Z,7.22
2019-02-06T13:05:23.892Z,7.19
2019-02-06T13:07:49.991Z,7.22
2019-02-06T13:10:17.950Z,7.24
2019-02-06T13:12:44.104Z,7.25
2019-02-06T13:15:12.794Z,7.25
2019-02-06T13:17:38.956Z,7.29
2019-02-06T13:20:10.430Z,7.28
2019-02-06T13:22:36.906Z,7.29
2019-02-06T13:25:05.608Z,7.34
2019-02-06T13:27:31.772Z,7.34
2019-02-06T13:29:57.926Z,7.36
2019-02-06T13:32:24.082Z,7.38
2019-02-06T13:34:50.239Z,7.45
2019-02-06T13:37:16.365Z,7.48
2019-02-06T13:39:42.793Z,7.49
2019-02-06T13:42:08.960Z,7.49
2019-02-06T13:44:35.133Z,7.52
2019-02-06T13:47:01.351Z,7.58
2019-02-06T13:49:27.566Z,7.56
2019-02-06T13:51:53.738Z,7.59
2019-02-06T13:54:19.830Z,7.52
2019-02-06T13:56:45.985Z,7.53
2019-02-06T13:59:12.441Z,7.53
2019-02-06T14:01:38.640Z,7.55
2019-02-06T14:04:04.775Z,7.54
2019-02-06T14:06:30.902Z,7.53
2019-02-06T14:08:57.025Z,7.52
2019-02-06T14:11:23.139Z,7.51
2019-02-06T14:13:49.401Z,7.50
2019-02-06T14:16:15.502Z,7.54
2019-02-06T14:18:41.673Z,7.52
2019-02-06T14:21:07.771Z,7.53
2019-02-06T14:23:37.507Z,7.56
2019-02-06T14:26:16.263Z,7.60
2019-02-06T14:28:48.731Z,7.64
2019-02-06T14:31:27.358Z,7.63
2019-02-06T14:34:05.880Z,7.63
2019-02-06T14:36:41.480Z,7.67
2019-02-06T14:39:19.912Z,7.67
2019-02-06T14:41:48.571Z,7.72
2019-02-06T14:44:40.871Z,7.73
2019-02-06T14:47:28.275Z,7.68
2019-02-06T14:50:10.056Z,7.68
2019-02-06T14:52:51.682Z,7.66
2019-02-06T14:55:38.271Z,7.68
2019-02-06T14:58:10.885Z,7.69
2019-02-06T15:00:59.863Z,7.66
2019-02-06T15:03:27.513Z,7.70
2019-02-06T15:05:57.285Z,7.69
2019-02-06T15:08:59.081Z,7.70
2019-02-06T15:11:32.265Z,7.71
2019-02-06T15:14:22.996Z,7.68
2019-02-06T15:17:18.744Z,7.68
2019-02-06T15:20:09.596Z,7.70
2019-02-06T15:26:34.554Z,7.70
2019-02-06T15:29:07.326Z,7.70
2019-02-06T15:31:54.100Z,7.72
2019-02-06T15:34:38.425Z,7.73
2019-02-06T15:37:10.845Z,7.74
2019-02-06T15:39:49.941Z,7.73
2019-02-06T15:42:43.353Z,7.76
2019-02-06T15:45:15.236Z,7.79
2019-02-06T15:47:44.955Z,7.79
2019-02-06T15:50:43.730Z,7.81
2019-02-06T15:53:16.181Z,7.79
2019-02-06T15:55:45.972Z,7.79
2019-02-06T15:58:38.788Z,7.80
2019-02-06T16:01:29.436Z,7.81
2019-02-06T16:04:19.443Z,7.81
2019-02-06T16:07:22.704Z,7.82
2019-02-06T16:10:01.754Z,7.83
2019-02-06T16:12:42.991Z,7.83
2019-02-06T16:15:30.248Z,7.85
2019-02-06T16:18:00.470Z,7.87
2019-02-06T16:20:59.222Z,7.85
2019-02-06T16:23:44.358Z,7.87
2019-02-06T16:26:29.182Z,7.87
2019-02-06T16:29:11.032Z,7.86
2019-02-06T16:31:49.410Z,7.89
2019-02-06T16:34:25.164Z,7.85
2019-02-06T16:37:00.829Z,7.86
2019-02-06T16:39:30.581Z,7.90
2019-02-06T16:42:03.261Z,7.89
2019-02-06T16:44:41.782Z,7.89
2019-02-06T16:47:23.978Z,7.90
2019-02-06T16:50:05.257Z,7.91
2019-02-06T16:52:40.979Z,7.88
2019-02-06T16:55:22.812Z,7.88
2019-02-06T16:58:16.453Z,7.92
2019-02-06T17:01:01.380Z,7.93
2019-02-06T17:03:51.968Z,7.93
2019-02-06T17:06:34.850Z,7.94
2019-02-06T17:09:25.643Z,7.95
2019-02-06T17:12:10.495Z,7.94
2019-02-06T17:15:13.894Z,8.01
2019-02-06T17:17:46.772Z,7.98
2019-02-06T17:20:22.493Z,7.96
2019-02-06T17:22:58.169Z,8.00
2019-02-06T17:25:50.982Z,7.98
2019-02-06T17:28:32.424Z,7.98
2019-02-06T17:31:05.003Z,8.02
2019-02-06T17:33:37.299Z,8.00
2019-02-06T17:36:18.993Z,8.02
2019-02-06T17:39:23.583Z,8.03
2019-02-06T17:41:44.186Z,8.06
2019-02-06T17:44:16.890Z,8.06
2019-02-06T17:46:52.567Z,8.06
2019-02-06T17:49:39.052Z,8.04
2019-02-06T17:52:28.643Z,8.03
2019-02-06T17:55:13.113Z,8.03
2019-02-06T17:57:39.423Z,8.03
2019-02-06T18:00:15.087Z,8.07
2019-02-06T18:02:41.191Z,8.03
2019-02-06T18:05:08.581Z,8.05
2019-02-06T18:07:34.715Z,8.07
2019-02-06T18:10:01.940Z,8.04
2019-02-06T18:12:29.324Z,8.03
2019-02-06T18:14:55.971Z,8.06
2019-02-06T18:17:22.124Z,8.08
2019-02-06T18:19:48.227Z,8.08
2019-02-06T18:22:14.351Z,8.07
2019-02-06T18:24:40.450Z,8.10
2019-02-06T18:27:06.617Z,8.10
2019-02-06T18:29:32.744Z,8.07
2019-02-06T18:31:58.841Z,8.05
2019-02-06T18:34:25.023Z,8.08
2019-02-06T18:36:51.143Z,8.09
2019-02-06T18:39:17.472Z,8.11
2019-02-06T18:41:43.670Z,8.10
2019-02-06T18:44:09.915Z,8.11
2019-02-06T18:46:36.145Z,8.10
2019-02-06T18:49:02.702Z,8.09
2019-02-06T18:51:28.917Z,8.11
2019-02-06T18:53:55.584Z,8.12
2019-02-06T18:56:21.700Z,8.10
2019-02-06T18:58:47.925Z,8.10
2019-02-06T19:01:14.056Z,8.10
2019-02-06T19:03:42.298Z,8.15
2019-02-06T19:06:08.782Z,8.14
2019-02-06T19:08:34.976Z,8.16
2019-02-06T19:11:01.082Z,8.13
2019-02-06T19:13:27.170Z,8.12
2019-02-06T19:15:56.577Z,8.11
2019-02-06T19:18:21.642Z,8.12
2019-02-06T19:20:47.800Z,8.13
2019-02-06T19:23:13.909Z,8.13
2019-02-06T19:25:40.052Z,8.12
2019-02-06T19:28:06.180Z,8.14
2019-02-06T19:30:40.576Z,8.17
2019-02-06T19:33:07.457Z,8.13
2019-02-06T19:35:33.620Z,8.11
2019-02-06T19:37:59.712Z,8.13
2019-02-06T19:40:25.852Z,8.13
2019-02-06T19:43:00.154Z,8.13
2019-02-06T19:45:20.012Z,8.13
2019-02-06T19:47:46.476Z,8.12
2019-02-06T19:50:22.100Z,8.12
2019-02-06T19:52:48.323Z,8.13
2019-02-06T19:55:15.529Z,8.14
2019-02-06T19:57:41.653Z,8.12
2019-02-06T20:00:11.469Z,8.09
2019-02-06T20:02:37.615Z,8.08
2019-02-06T20:05:07.324Z,8.09
2019-02-06T20:07:33.464Z,8.09
2019-02-06T20:09:59.961Z,8.11
2019-02-06T20:12:26.091Z,8.08
2019-02-06T20:14:52.188Z,8.12
2019-02-06T20:17:18.302Z,8.11
2019-02-06T20:19:44.425Z,8.08
2019-02-06T20:22:10.647Z,8.04
2019-02-06T20:24:36.775Z,8.00
2019-02-06T20:27:02.874Z,8.05
2019-02-06T20:29:28.910Z,8.05
2019-02-06T20:31:55.016Z,8.03
2019-02-06T20:34:21.547Z,8.04
2019-02-06T20:36:47.659Z,8.09
2019-02-06T20:39:13.669Z,8.07
2019-02-06T20:41:39.810Z,8.06
2019-02-06T20:44:05.928Z,8.03
2019-02-06T20:46:32.036Z,8.03
2019-02-06T20:48:58.145Z,8.06
2019-02-06T20:51:24.265Z,8.08
2019-02-06T20:53:50.397Z,8.07
2019-02-06T20:56:16.535Z,8.06
2019-02-06T20:58:42.724Z,8.07
2019-02-06T21:01:08.976Z,8.07
2019-02-06T21:03:35.065Z,8.07
2019-02-06T21:06:01.197Z,8.09
2019-02-06T21:08:27.675Z,8.11
2019-02-06T21:10:53.797Z,8.14
2019-02-06T21:13:19.914Z,8.09
2019-02-06T21:15:46.040Z,8.10
2019-02-06T21:18:12.140Z,8.09
2019-02-06T21:20:38.672Z,8.11
2019-02-06T21:23:04.791Z,8.11
2019-02-06T21:25:30.988Z,8.13
2019-02-06T21:27:57.132Z,8.10
2019-02-06T21:30:35.864Z,8.13
2019-02-06T21:33:02.007Z,8.13
2019-02-06T21:35:28.153Z,8.14
2019-02-06T21:37:54.711Z,8.18
2019-02-06T21:40:23.094Z,8.15
2019-02-06T21:42:49.211Z,8.13
2019-02-06T21:45:15.325Z,8.18
2019-02-06T21:47:41.454Z,8.15
2019-02-06T21:50:10.846Z,8.18
2019-02-06T21:52:36.942Z,8.18
2019-02-06T21:55:06.262Z,8.18
2019-02-06T21:57:32.490Z,8.19
2019-02-06T21:59:58.582Z,8.19
2019-02-06T22:02:24.703Z,8.19
2019-02-06T22:04:50.805Z,8.21
2019-02-06T22:07:16.955Z,8.19
2019-02-06T22:09:43.111Z,8.19
2019-02-06T22:12:09.247Z,8.22
2019-02-06T22:14:35.367Z,8.24
2019-02-06T22:17:01.805Z,8.27
2019-02-06T22:19:27.954Z,8.29
2019-02-06T22:21:54.046Z,8.31
2019-02-06T22:24:20.155Z,8.31
2019-02-06T22:26:46.302Z,8.29
2019-02-06T22:29:12.414Z,8.29
2019-02-06T22:31:38.442Z,8.33
2019-02-06T22:34:04.732Z,8.30
2019-02-06T22:36:31.304Z,8.30
2019-02-06T22:38:57.446Z,8.34
2019-02-06T22:41:23.566Z,8.37
2019-02-06T22:43:49.705Z,8.36
2019-02-06T22:46:15.863Z,8.37
2019-02-06T22:48:41.883Z,8.39
2019-02-06T22:51:07.992Z,8.44
2019-02-06T22:53:34.126Z,8.46
2019-02-06T22:56:00.429Z,8.50
2019-02-06T22:58:26.568Z,8.50
2019-02-06T23:01:05.139Z,8.54
2019-02-06T23:03:34.320Z,8.53
2019-02-06T23:06:00.532Z,8.53
2019-02-06T23:08:26.776Z,8.53
2019-02-06T23:10:52.877Z,8.57
2019-02-06T23:13:19.195Z,8.63
2019-02-06T23:15:45.331Z,8.64
2019-02-06T23:18:11.883Z,8.65
2019-02-06T23:20:38.112Z,8.70
2019-02-06T23:23:04.353Z,8.73
2019-02-06T23:25:30.479Z,8.71
2019-02-06T23:27:56.610Z,8.72
2019-02-06T23:30:23.117Z,8.77
2019-02-06T23:32:49.259Z,8.78
2019-02-06T23:35:15.379Z,8.77
2019-02-06T23:37:41.520Z,8.79
2019-02-06T23:40:10.933Z,8.79
2019-02-06T23:42:37.043Z,8.80
2019-02-06T23:45:06.870Z,8.81
2019-02-06T23:47:32.993Z,8.84
2019-02-06T23:49:59.402Z,8.84
2019-02-06T23:52:25.515Z,8.81
2019-02-06T23:54:51.547Z,8.82
2019-02-06T23:57:17.671Z,8.84
2019-02-06T23:59:43.755Z,8.83
